Time;durP1;ratioP1;P1;durP2;ratioP2;P2;SDS_P1;SDS_P2;PMS_P1;PMS_P2;Temp;Humidity;BMP_temperature;BMP_pressure;BME280_temperature;BME280_humidity;BME280_pressure;Samples;Min_cycle;Max_cycle;Signal;HPM_P1;HPM_P2
2022/08/09 00:01:47;;;;;;;;;6.00;4.00;;;;;-146.67;100.00;57155.34;5004131;28;62029;-77
2022/08/09 00:04:14;;;;;;;;;5.00;4.75;;;;;-146.67;100.00;57155.34;4987058;28;65035;-78
2022/08/09 00:06:40;;;;;;;;;5.25;4.00;;;;;-146.67;100.00;57155.34;5005311;28;61878;-77
2022/08/09 00:09:06;;;;;;;;;6.00;3.75;;;;;-146.67;100.00;57155.34;5005275;28;61949;-77
2022/08/09 00:11:31;;;;;;;;;4.00;4.00;;;;;-146.67;100.00;57155.34;5005100;28;62089;-77
2022/08/09 00:13:56;;;;;;;;;3.00;3.00;;;;;-146.67;100.00;57155.34;5004563;28;62834;-78
2022/08/09 00:16:22;;;;;;;;;5.25;4.00;;;;;-146.67;100.00;57155.34;4987361;28;61828;-77
2022/08/09 00:18:48;;;;;;;;;4.00;4.00;;;;;-146.67;100.00;57155.34;4987441;28;61948;-77
2022/08/09 00:21:13;;;;;;;;;2.25;2.25;;;;;-146.67;100.00;57155.34;4987314;28;62238;-77
2022/08/09 00:23:39;;;;;;;;;4.00;4.00;;;;;-146.67;100.00;57155.34;5004375;28;62001;-77
2022/08/09 00:26:06;;;;;;;;;3.00;3.00;;;;;-146.67;100.00;57155.34;5000015;28;61955;-77
2022/08/09 00:28:33;;;;;;;;;3.50;3.50;;;;;-146.67;100.00;57155.34;5002311;28;62032;-77
2022/08/09 00:30:58;;;;;;;;;3.00;2.50;;;;;-146.67;100.00;57155.34;5003774;28;62044;-77
2022/08/09 00:33:25;;;;;;;;;5.00;4.00;;;;;-146.67;100.00;57155.34;5004055;28;61958;-77
2022/08/09 00:35:51;;;;;;;;;2.75;2.75;;;;;-146.67;100.00;57155.34;5003528;28;61923;-77
2022/08/09 00:38:16;;;;;;;;;4.75;1.75;;;;;-146.67;100.00;57155.34;5004768;28;61960;-77
2022/08/09 00:40:42;;;;;;;;;3.00;3.00;;;;;-146.67;100.00;57155.34;5004781;28;61830;-77
2022/08/09 00:43:08;;;;;;;;;4.25;3.00;;;;;-146.67;100.00;57155.34;5002450;28;64925;-78
2022/08/09 00:45:34;;;;;;;;;2.00;2.00;;;;;-146.67;100.00;57155.34;4986834;28;61805;-78
2022/08/09 00:48:00;;;;;;;;;4.25;2.75;;;;;-146.67;100.00;57155.34;5003508;28;61925;-77
2022/08/09 00:50:26;;;;;;;;;2.75;2.25;;;;;-146.67;100.00;57155.34;5003365;28;61986;-77
2022/08/09 00:52:52;;;;;;;;;2.50;2.25;;;;;-146.67;100.00;57155.34;5002846;28;63551;-78
2022/08/09 00:55:18;;;;;;;;;3.75;3.75;;;;;-146.67;100.00;57155.34;5004633;28;61920;-77
2022/08/09 00:57:44;;;;;;;;;3.50;3.50;;;;;-146.67;100.00;57155.34;5004146;28;61724;-77
2022/08/09 01:00:11;;;;;;;;;2.50;2.50;;;;;-146.67;100.00;57155.34;5003119;28;61910;-77
2022/08/09 01:02:46;;;;;;;;;2.75;2.75;;;;;-146.67;100.00;57155.34;5003618;28;61949;-77
2022/08/09 01:05:30;;;;;;;;;3.00;3.00;;;;;-146.67;100.00;57155.34;5003190;28;61896;-77
2022/08/09 01:08:07;;;;;;;;;3.00;3.00;;;;;-146.67;100.00;57155.34;4986494;28;61905;-77
2022/08/09 01:10:45;;;;;;;;;3.75;3.00;;;;;-146.67;100.00;57155.34;5004294;28;61879;-77
2022/08/09 01:13:25;;;;;;;;;3.00;3.00;;;;;-146.67;100.00;57155.34;5003379;28;63019;-77
2022/08/09 01:15:55;;;;;;;;;3.50;3.50;;;;;-146.67;100.00;57155.34;5004204;28;61829;-77
2022/08/09 01:18:26;;;;;;;;;2.25;2.00;;;;;-146.67;100.00;57155.34;5004289;28;61932;-77
2022/08/09 01:21:16;;;;;;;;;2.25;2.25;;;;;-146.67;100.00;57155.34;5002853;28;61845;-77
2022/08/09 01:24:10;;;;;;;;;3.00;3.00;;;;;-146.67;100.00;57155.34;5003332;28;62843;-78
2022/08/09 01:26:48;;;;;;;;;2.00;2.00;;;;;-146.67;100.00;57155.34;4981286;28;61772;-77
2022/08/09 01:29:15;;;;;;;;;3.00;3.00;;;;;-146.67;100.00;57155.34;5004259;28;61873;-77
2022/08/09 01:31:43;;;;;;;;;3.00;3.00;;;;;-146.67;100.00;57155.34;4986143;28;61836;-77
2022/08/09 01:34:14;;;;;;;;;4.25;3.25;;;;;-146.67;100.00;57155.34;4985506;28;63786;-77
2022/08/09 01:36:43;;;;;;;;;2.00;2.00;;;;;-146.67;100.00;57155.34;5003677;28;61686;-77
2022/08/09 01:39:09;;;;;;;;;3.00;2.25;;;;;-146.67;100.00;57155.34;5002524;28;61868;-77
2022/08/09 01:41:40;;;;;;;;;4.00;3.75;;;;;-146.67;100.00;57155.34;5002065;28;62202;-77
2022/08/09 01:44:08;;;;;;;;;3.00;3.00;;;;;-146.67;100.00;57155.34;5001975;28;63654;-77
2022/08/09 01:46:41;;;;;;;;;5.75;4.00;;;;;-146.67;100.00;57155.34;4985736;28;61783;-77
2022/08/09 01:49:10;;;;;;;;;2.75;2.75;;;;;-146.67;100.00;57155.34;5003734;28;61818;-77
2022/08/09 01:51:39;;;;;;;;;4.00;3.25;;;;;-146.67;100.00;57155.34;5002447;28;61832;-77
2022/08/09 01:54:06;;;;;;;;;3.25;2.00;;;;;-146.67;100.00;57155.34;5001578;28;63712;-77
2022/08/09 01:56:35;;;;;;;;;2.00;2.00;;;;;-146.67;100.00;57155.34;5002888;28;62043;-78
2022/08/09 01:59:07;;;;;;;;;2.00;2.00;;;;;-146.67;100.00;57155.34;5002365;28;61805;-78
2022/08/09 02:01:34;;;;;;;;;3.50;3.50;;;;;-146.67;100.00;57155.34;4985667;28;61906;-78
2022/08/09 02:04:01;;;;;;;;;2.00;2.00;;;;;-146.67;100.00;57155.34;5001612;28;63721;-78
2022/08/09 02:09:15;;;;;;;;;2.75;2.75;;;;;-146.67;100.00;57155.34;5003184;28;61751;-77
2022/08/09 02:11:40;;;;;;;;;4.00;4.00;;;;;-146.67;100.00;57155.34;5001861;28;62197;-77
2022/08/09 02:14:08;;;;;;;;;2.25;2.25;;;;;-146.67;100.00;57155.34;5001439;28;63139;-77
2022/08/09 02:16:37;;;;;;;;;4.00;2.25;;;;;-146.67;100.00;57155.34;5001543;28;61875;-78
2022/08/09 02:19:04;;;;;;;;;4.75;3.00;;;;;-146.67;100.00;57155.34;5003400;28;61794;-77
2022/08/09 02:21:46;;;;;;;;;2.00;2.00;;;;;-146.67;100.00;57155.34;5003319;28;61782;-77
2022/08/09 02:24:19;;;;;;;;;2.75;2.75;;;;;-146.67;100.00;57155.34;5002175;28;61895;-77
2022/08/09 02:26:46;;;;;;;;;4.00;4.00;;;;;-146.67;100.00;57155.34;5000882;28;62070;-77
2022/08/09 02:29:19;;;;;;;;;2.75;2.75;;;;;-146.67;100.00;57155.34;5003390;28;61831;-77
2022/08/09 02:31:46;;;;;;;;;3.75;3.00;;;;;-146.67;100.00;57155.34;5001927;28;62058;-77
2022/08/09 02:34:19;;;;;;;;;3.50;2.50;;;;;-146.67;100.00;57155.34;5002714;28;61704;-77
2022/08/09 02:36:50;;;;;;;;;2.00;2.00;;;;;-146.67;100.00;57155.34;4984894;28;62114;-78
2022/08/09 02:39:21;;;;;;;;;2.25;2.25;;;;;-146.67;100.00;57155.34;5002852;28;61860;-77
2022/08/09 02:41:55;;;;;;;;;6.25;2.00;;;;;-146.67;100.00;57155.34;5001352;28;61948;-77
2022/08/09 02:44:26;;;;;;;;;4.00;3.00;;;;;-146.67;100.00;57155.34;5001246;28;64906;-77
2022/08/09 02:46:56;;;;;;;;;2.75;2.75;;;;;-146.67;100.00;57155.34;5002737;28;61780;-77
2022/08/09 02:49:21;;;;;;;;;1.75;1.25;;;;;-146.67;100.00;57155.34;5002801;28;61911;-77
2022/08/09 02:51:53;;;;;;;;;2.75;2.75;;;;;-146.67;100.00;57155.34;5002886;28;61799;-77
2022/08/09 02:54:20;;;;;;;;;2.75;2.75;;;;;-146.67;100.00;57155.34;5001867;28;62943;-77
2022/08/09 02:56:48;;;;;;;;;3.25;2.25;;;;;-146.67;100.00;57155.34;5002462;28;62354;-77
2022/08/09 02:59:15;;;;;;;;;2.00;2.00;;;;;-146.67;100.00;57155.34;5002615;28;61837;-77
2022/08/09 03:01:43;;;;;;;;;4.50;3.50;;;;;-146.67;100.00;57155.34;4984949;28;62186;-77
2022/08/09 03:04:11;;;;;;;;;4.25;4.25;;;;;-146.67;100.00;57155.34;5002104;28;63309;-77
2022/08/09 03:06:39;;;;;;;;;4.00;3.00;;;;;-146.67;100.00;57155.34;5002479;28;62068;-77
2022/08/09 03:09:07;;;;;;;;;3.50;3.25;;;;;-146.67;100.00;57155.34;4984618;28;61942;-77
2022/08/09 03:11:34;;;;;;;;;3.00;1.50;;;;;-146.67;100.00;57155.34;4984707;28;62145;-78
2022/08/09 03:14:00;;;;;;;;;5.00;3.50;;;;;-146.67;100.00;57155.34;4984060;28;63628;-78
2022/08/09 03:16:27;;;;;;;;;5.00;3.00;;;;;-146.67;100.00;57155.34;5002389;28;61938;-77
2022/08/09 03:18:54;;;;;;;;;3.00;3.00;;;;;-146.67;100.00;57155.34;5002421;28;61675;-77
2022/08/09 03:21:22;;;;;;;;;5.75;2.75;;;;;-146.67;100.00;57155.34;5000910;28;62114;-77
2022/08/09 03:23:48;;;;;;;;;2.50;2.50;;;;;-146.67;100.00;57155.34;5001567;28;62026;-77
2022/08/09 03:26:16;;;;;;;;;6.00;2.50;;;;;-146.67;100.00;57155.34;5001764;28;61872;-77
2022/08/09 03:28:43;;;;;;;;;4.00;2.00;;;;;-146.67;100.00;57155.34;5003645;28;62084;-77
2022/08/09 03:31:09;;;;;;;;;3.00;2.25;;;;;-146.67;100.00;57155.34;5005902;28;61813;-77
2022/08/09 03:33:36;;;;;;;;;4.25;3.75;;;;;-146.67;100.00;57155.34;4987721;28;63798;-77
2022/08/09 03:36:03;;;;;;;;;7.25;5.50;;;;;-146.67;100.00;57155.34;5005364;28;61798;-77
2022/08/09 03:38:28;;;;;;;;;4.00;4.00;;;;;-146.67;100.00;57155.34;4988072;28;61730;-77
2022/08/09 03:40:54;;;;;;;;;2.75;2.75;;;;;-146.67;100.00;57155.34;5005586;28;61879;-77
2022/08/09 03:43:20;;;;;;;;;2.50;2.50;;;;;-146.67;100.00;57155.34;4987089;28;63603;-77
2022/08/09 03:45:45;;;;;;;;;3.25;2.50;;;;;-146.67;100.00;57155.34;5005757;28;61951;-77
2022/08/09 03:48:11;;;;;;;;;1.75;1.75;;;;;-146.67;100.00;57155.34;5005814;28;62007;-77
2022/08/09 03:50:38;;;;;;;;;3.75;3.75;;;;;-146.67;100.00;57155.34;5005447;28;61731;-77
2022/08/09 03:53:06;;;;;;;;;2.00;2.00;;;;;-146.67;100.00;57155.34;5004756;28;63200;-77
2022/08/09 03:55:32;;;;;;;;;2.75;2.75;;;;;-146.67;100.00;57155.34;4987641;28;62046;-77
2022/08/09 03:57:58;;;;;;;;;2.25;2.25;;;;;-146.67;100.00;57155.34;4987358;28;61908;-77
2022/08/09 04:00:24;;;;;;;;;2.25;2.25;;;;;-146.67;100.00;57155.34;5004327;28;61939;-77
2022/08/09 04:02:52;;;;;;;;;2.25;2.25;;;;;-146.67;100.00;57155.34;4986825;28;63766;-77
2022/08/09 04:05:19;;;;;;;;;5.25;2.75;;;;;-146.67;100.00;57155.34;5005070;28;61956;-77
2022/08/09 04:07:46;;;;;;;;;2.25;2.25;;;;;-146.67;100.00;57155.34;4987579;28;62002;-77
2022/08/09 04:10:16;;;;;;;;;4.50;3.25;;;;;-146.67;100.00;57155.34;5003910;28;62449;-77
2022/08/09 04:12:44;;;;;;;;;1.75;1.75;;;;;-146.67;100.00;57155.34;5003110;28;63942;-77
2022/08/09 04:15:11;;;;;;;;;3.00;3.00;;;;;-146.67;100.00;57155.34;5005112;28;61937;-77
2022/08/09 04:17:38;;;;;;;;;4.50;3.50;;;;;-146.67;100.00;57155.34;4987467;28;62011;-77
2022/08/09 04:20:04;;;;;;;;;3.75;3.75;;;;;-146.67;100.00;57155.34;5004891;28;61871;-77
2022/08/09 04:22:30;;;;;;;;;5.00;3.00;;;;;-146.67;100.00;57155.34;5004454;28;62852;-77
2022/08/09 04:24:55;;;;;;;;;3.00;3.00;;;;;-146.67;100.00;57155.34;5004810;28;62472;-77
2022/08/09 04:27:20;;;;;;;;;6.50;4.75;;;;;-146.67;100.00;57155.34;5004620;28;62439;-77
2022/08/09 04:29:46;;;;;;;;;2.50;2.50;;;;;-146.67;100.00;57155.34;5003729;28;61823;-77
2022/08/09 04:32:12;;;;;;;;;4.00;4.00;;;;;-146.67;100.00;57155.34;5002824;28;63696;-77
2022/08/09 04:34:37;;;;;;;;;4.25;2.25;;;;;-146.67;100.00;57155.34;5004656;28;61778;-77
2022/08/09 04:37:02;;;;;;;;;3.75;3.75;;;;;-146.67;100.00;57155.34;5004846;28;61984;-77
2022/08/09 04:39:28;;;;;;;;;6.50;4.00;;;;;-146.67;100.00;57155.34;5004868;28;61759;-77
2022/08/09 04:41:53;;;;;;;;;2.50;2.50;;;;;-146.67;100.00;57155.34;5003719;28;61982;-77
2022/08/09 04:44:19;;;;;;;;;4.50;3.25;;;;;-146.67;100.00;57155.34;4987162;28;61911;-77
2022/08/09 04:46:44;;;;;;;;;3.00;3.00;;;;;-146.67;100.00;57155.34;5003438;28;61985;-77
2022/08/09 04:49:09;;;;;;;;;3.25;3.25;;;;;-146.67;100.00;57155.34;4986849;28;62078;-77
2022/08/09 04:51:37;;;;;;;;;3.00;3.00;;;;;-146.67;100.00;57155.34;4986433;28;64025;-77
2022/08/09 04:54:07;;;;;;;;;4.25;3.25;;;;;-146.67;100.00;57155.34;5004151;28;62023;-77
2022/08/09 04:56:44;;;;;;;;;3.00;3.00;;;;;-146.67;100.00;57155.34;4986911;28;61907;-77
2022/08/09 04:59:09;;;;;;;;;4.75;3.00;;;;;-146.67;100.00;57155.34;5003274;28;61867;-78
2022/08/09 05:01:34;;;;;;;;;3.50;3.50;;;;;-146.67;100.00;57155.34;4986219;28;63583;-78
2022/08/09 05:04:00;;;;;;;;;3.00;3.00;;;;;-146.67;100.00;57155.34;4986333;28;62071;-77
2022/08/09 05:06:26;;;;;;;;;4.25;3.50;;;;;-146.67;100.00;57155.34;5004537;28;61853;-77
2022/08/09 05:08:51;;;;;;;;;4.00;3.00;;;;;-146.67;100.00;57155.34;4986736;28;61809;-77
2022/08/09 05:11:16;;;;;;;;;3.00;3.00;;;;;-146.67;100.00;57155.34;4986059;28;63983;-77
2022/08/09 05:13:42;;;;;;;;;3.00;2.00;;;;;-146.67;100.00;57155.34;5004313;28;62012;-77
2022/08/09 05:16:08;;;;;;;;;6.50;4.00;;;;;-146.67;100.00;57155.34;5002846;28;61859;-77
2022/08/09 05:18:34;;;;;;;;;4.00;3.00;;;;;-146.67;100.00;57155.34;5004045;28;61973;-78
2022/08/09 05:21:00;;;;;;;;;2.75;2.25;;;;;-146.67;100.00;57155.34;5002162;28;63609;-77
2022/08/09 05:23:26;;;;;;;;;5.00;4.00;;;;;-146.67;100.00;57155.34;5003997;28;61785;-78
2022/08/09 05:25:51;;;;;;;;;5.00;3.00;;;;;-146.67;100.00;57155.34;4986145;28;61961;-78
2022/08/09 05:28:18;;;;;;;;;2.75;2.75;;;;;-146.67;100.00;57155.34;5003294;28;61727;-77
2022/08/09 05:30:44;;;;;;;;;3.50;3.50;;;;;-146.67;100.00;57155.34;5002180;28;63776;-77
2022/08/09 05:33:10;;;;;;;;;4.00;3.00;;;;;-146.67;100.00;57155.34;5003359;28;61758;-76
2022/08/09 05:35:35;;;;;;;;;5.00;4.00;;;;;-146.67;100.00;57155.34;5002737;28;61728;-76
2022/08/09 05:38:01;;;;;;;;;4.00;3.00;;;;;-146.67;100.00;57155.34;5003876;28;61771;-76
2022/08/09 05:40:27;;;;;;;;;4.50;2.75;;;;;-146.67;100.00;57155.34;4985521;28;63682;-77
2022/08/09 05:42:54;;;;;;;;;4.75;3.50;;;;;-146.67;100.00;57155.34;5003628;28;61766;-76
2022/08/09 05:45:19;;;;;;;;;2.00;2.00;;;;;-146.67;100.00;57155.34;4986062;28;62065;-76
2022/08/09 05:47:45;;;;;;;;;3.50;3.00;;;;;-146.67;100.00;57155.34;5003740;28;62048;-77
2022/08/09 05:50:11;;;;;;;;;3.50;3.00;;;;;-146.67;100.00;57155.34;5001616;28;64615;-77
2022/08/09 05:52:37;;;;;;;;;3.75;3.00;;;;;-146.67;100.00;57155.34;5002966;28;61893;-77
2022/08/09 05:55:03;;;;;;;;;4.00;2.00;;;;;-146.67;100.00;57155.34;5003370;28;61885;-77
2022/08/09 05:57:28;;;;;;;;;3.75;3.75;;;;;-146.67;100.00;57155.34;5003582;28;61799;-76
2022/08/09 05:59:53;;;;;;;;;3.75;3.00;;;;;-146.67;100.00;57155.34;5001534;28;63462;-77
2022/08/09 06:02:19;;;;;;;;;4.25;3.50;;;;;-146.67;100.00;57155.34;5003294;28;61814;-82
2022/08/09 06:04:56;;;;;;;;;3.00;2.75;;;;;-146.67;100.00;57155.34;4978199;28;62110;-79
2022/08/09 06:07:26;;;;;;;;;3.00;3.00;;;;;-146.67;100.00;57155.34;4994298;28;61921;-78
2022/08/09 06:10:01;;;;;;;;;4.00;3.00;;;;;-146.67;100.00;57155.34;4994599;28;62679;-78
2022/08/09 06:12:31;;;;;;;;;5.75;2.50;;;;;-146.67;100.00;57155.34;4992939;28;62040;-78
2022/08/09 06:15:03;;;;;;;;;2.75;2.50;;;;;-146.67;100.00;57155.34;4997957;28;61900;-78
2022/08/09 06:17:29;;;;;;;;;7.00;4.25;;;;;-146.67;100.00;57155.34;4966479;28;61877;-78
2022/08/09 06:19:55;;;;;;;;;3.75;3.75;;;;;-146.67;100.00;57155.34;4997862;28;62113;-78
2022/08/09 06:22:25;;;;;;;;;4.50;3.75;;;;;-146.67;100.00;57155.34;4985530;28;61966;-78
2022/08/09 06:25:18;;;;;;;;;4.00;3.25;;;;;-146.67;100.00;57155.34;5002414;28;61934;-78
2022/08/09 06:27:51;;;;;;;;;5.50;4.00;;;;;-146.67;100.00;57155.34;4983410;28;61935;-78
2022/08/09 06:30:38;;;;;;;;;3.50;3.00;;;;;-146.67;100.00;57155.34;4962923;28;62021;-78
2022/08/09 06:33:05;;;;;;;;;3.00;3.00;;;;;-146.67;100.00;57155.34;4963596;28;61986;-78
2022/08/09 06:35:43;;;;;;;;;3.50;3.25;;;;;-146.67;100.00;57155.34;4978959;28;62022;-78
2022/08/09 06:38:21;;;;;;;;;3.25;3.25;;;;;-146.67;100.00;57155.34;4963720;28;62003;-78
2022/08/09 06:40:50;;;;;;;;;2.50;2.50;;;;;-146.67;100.00;57155.34;4960091;28;64545;-78
2022/08/09 06:43:25;;;;;;;;;3.75;2.50;;;;;-146.67;100.00;57155.34;4975567;28;61993;-78
2022/08/09 06:45:51;;;;;;;;;4.25;2.75;;;;;-146.67;100.00;57155.34;4999668;28;61767;-78
2022/08/09 06:48:24;;;;;;;;;7.00;5.00;;;;;-146.67;100.00;57155.34;4976543;28;61794;-76
2022/08/09 06:50:52;;;;;;;;;2.50;2.50;;;;;-146.67;100.00;57155.34;4991829;28;63231;-77
2022/08/09 06:53:19;;;;;;;;;2.50;2.50;;;;;-146.67;100.00;57155.34;4979175;28;61935;-77
2022/08/09 06:55:48;;;;;;;;;4.33;3.00;;;;;-146.67;100.00;57155.34;4982792;28;61777;-76
2022/08/09 06:58:17;;;;;;;;;5.00;2.50;;;;;-146.67;100.00;57155.34;4976598;28;61884;-76
2022/08/09 07:00:55;;;;;;;;;4.00;4.00;;;;;-146.67;100.00;57155.34;4981487;28;63276;-76
2022/08/09 07:03:25;;;;;;;;;4.50;3.50;;;;;-146.67;100.00;57155.34;4981014;28;62029;-76
2022/08/09 07:05:59;;;;;;;;;8.50;4.00;;;;;-146.67;100.00;57155.34;4982587;28;61923;-76
2022/08/09 07:08:42;;;;;;;;;5.50;4.25;;;;;-146.67;100.00;57155.34;4979296;28;62029;-78
2022/08/09 07:11:33;;;;;;;;;4.25;4.25;;;;;-146.67;100.00;57155.34;4981950;28;62654;-77
2022/08/09 07:14:20;;;;;;;;;5.00;3.00;;;;;-146.67;100.00;57155.34;4980524;28;61870;-77
2022/08/09 07:16:59;;;;;;;;;7.67;4.00;;;;;-146.67;100.00;57155.34;4981527;28;61691;-77
2022/08/09 07:19:41;;;;;;;;;3.25;3.00;;;;;-146.67;100.00;57155.34;4981872;28;61877;-76
2022/08/09 07:22:36;;;;;;;;;5.25;3.00;;;;;-146.67;100.00;57155.34;4980217;28;64683;-76
2022/08/09 07:25:35;;;;;;;;;4.00;3.00;;;;;-146.67;100.00;57155.34;4982245;28;62018;-76
2022/08/09 07:28:08;;;;;;;;;5.00;3.00;;;;;-146.67;100.00;57155.34;4980166;28;61879;-76
2022/08/09 07:30:50;;;;;;;;;3.00;3.00;;;;;-146.67;100.00;57155.34;4980130;28;62174;-76
2022/08/09 07:33:23;;;;;;;;;6.50;4.00;;;;;-146.67;100.00;57155.34;4974042;28;62065;-76
2022/08/09 07:38:59;;;;;;;;;5.00;4.00;;;;;-146.67;100.00;57155.34;4980818;28;61733;-76
2022/08/09 07:41:38;;;;;;;;;6.25;3.75;;;;;-146.67;100.00;57155.34;4982031;28;62145;-76
2022/08/09 07:44:11;;;;;;;;;8.00;5.25;;;;;-146.67;100.00;57155.34;4981130;28;62126;-76
2022/08/09 07:46:50;;;;;;;;;5.50;3.50;;;;;-146.67;100.00;57155.34;4981782;28;61872;-76
2022/08/09 07:49:50;;;;;;;;;6.00;5.00;;;;;-146.67;100.00;57155.34;4982092;28;61951;-76
2022/08/09 07:53:03;;;;;;;;;3.50;3.50;;;;;-146.67;100.00;57155.34;4980463;28;61810;-76
2022/08/09 07:55:47;;;;;;;;;5.00;4.00;;;;;-146.67;100.00;57155.34;4920688;28;62075;-76
2022/08/09 07:58:27;;;;;;;;;5.25;4.00;;;;;-146.67;100.00;57155.34;4921205;28;61965;-75
2022/08/09 08:01:18;;;;;;;;;4.00;3.00;;;;;-146.67;100.00;57155.34;4902449;29;61875;-76
2022/08/09 08:03:48;;;;;;;;;5.00;2.75;;;;;-146.67;100.00;57155.34;4886386;29;61901;-76
2022/08/09 08:06:42;;;;;;;;;5.50;4.00;;;;;-146.67;100.00;57155.34;4890548;28;63583;-75
2022/08/09 08:09:19;;;;;;;;;3.75;3.75;;;;;-146.67;100.00;57155.34;4916431;28;62258;-75
2022/08/09 08:12:32;;;;;;;;;4.00;3.33;;;;;-146.67;100.00;57155.34;4920894;28;62178;-76
2022/08/09 08:14:58;;;;;;;;;5.50;3.00;;;;;-146.67;100.00;57155.34;4885303;29;61913;-75
2022/08/09 08:17:23;;;;;;;;;4.75;4.00;;;;;-146.67;100.00;57155.34;4886026;29;63463;-75
2022/08/09 08:19:49;;;;;;;;;5.67;4.00;;;;;-146.67;100.00;57155.34;4886631;29;61949;-75
2022/08/09 08:22:14;;;;;;;;;3.75;2.50;;;;;-146.67;100.00;57155.34;4886861;29;62040;-75
2022/08/09 08:24:40;;;;;;;;;3.00;3.00;;;;;-146.67;100.00;57155.34;4876576;29;61904;-75
2022/08/09 08:27:06;;;;;;;;;3.75;3.75;;;;;-146.67;100.00;57155.34;4883416;29;62029;-75
2022/08/09 08:29:31;;;;;;;;;4.00;3.75;;;;;-146.67;100.00;57155.34;4870673;29;61824;-75
2022/08/09 08:31:57;;;;;;;;;3.75;3.75;;;;;-146.67;100.00;57155.34;4902649;28;62519;-75
2022/08/09 08:34:22;;;;;;;;;5.00;3.75;;;;;-146.67;100.00;57155.34;4925006;28;62561;-76
2022/08/09 08:36:48;;;;;;;;;2.75;2.75;;;;;-146.67;100.00;57155.34;4929497;28;62154;-76
2022/08/09 08:39:16;;;;;;;;;6.75;5.00;;;;;-146.67;100.00;57155.34;4943219;28;61988;-76
2022/08/09 08:41:43;;;;;;;;;3.00;3.00;;;;;-146.67;100.00;57155.34;4923987;28;61920;-75
2022/08/09 08:44:11;;;;;;;;;5.00;3.00;;;;;-146.67;100.00;57155.34;4908341;28;62378;-75
2022/08/09 08:46:40;;;;;;;;;4.00;4.00;;;;;-146.67;100.00;57155.34;4923661;28;63663;-76
2022/08/09 08:49:06;;;;;;;;;4.00;4.00;;;;;-146.67;100.00;57155.34;4933513;28;62003;-75
2022/08/09 08:51:32;;;;;;;;;5.33;4.33;;;;;-146.67;100.00;57155.34;4961847;28;61780;-75
2022/08/09 08:54:05;;;;;;;;;4.00;3.00;;;;;-146.67;100.00;57155.34;4975642;28;62029;-75
2022/08/09 08:56:39;;;;;;;;;5.50;4.75;;;;;-146.67;100.00;57155.34;4987703;28;63619;-76
2022/08/09 08:59:08;;;;;;;;;8.50;4.00;;;;;-146.67;100.00;57155.34;4997003;28;62072;-75
2022/08/09 09:01:35;;;;;;;;;4.50;3.00;;;;;-146.67;100.00;57155.34;4984833;28;61686;-75
2022/08/09 09:04:08;;;;;;;;;6.00;4.00;;;;;-146.67;100.00;57155.34;4984801;28;61758;-75
2022/08/09 09:06:36;;;;;;;;;4.25;3.50;;;;;-146.67;100.00;57155.34;4977239;28;64895;-75
2022/08/09 09:09:04;;;;;;;;;7.00;5.00;;;;;-146.67;100.00;57155.34;5004382;28;61771;-74
2022/08/09 09:11:30;;;;;;;;;4.50;4.25;;;;;-146.67;100.00;57155.34;4993703;28;61905;-75
2022/08/09 09:13:59;;;;;;;;;5.25;5.25;;;;;-146.67;100.00;57155.34;4990216;28;61889;-75
2022/08/09 09:16:29;;;;;;;;;4.25;4.25;;;;;-146.67;100.00;57155.34;5003374;28;61980;-76
2022/08/09 09:18:54;;;;;;;;;3.25;3.25;;;;;-146.67;100.00;57155.34;4976356;28;62063;-76
2022/08/09 09:21:20;;;;;;;;;4.00;3.50;;;;;-146.67;100.00;57155.34;4975714;28;61918;-75
2022/08/09 09:23:46;;;;;;;;;4.00;3.00;;;;;-146.67;100.00;57155.34;4972657;28;62255;-75
2022/08/09 09:26:13;;;;;;;;;5.33;3.67;;;;;-146.67;100.00;57155.34;4974324;28;61948;-75
2022/08/09 09:28:44;;;;;;;;;4.00;4.00;;;;;-146.67;100.00;57155.34;4975567;28;61817;-75
2022/08/09 09:31:17;;;;;;;;;5.50;4.50;;;;;-146.67;100.00;57155.34;4968366;28;62027;-77
2022/08/09 09:33:43;;;;;;;;;2.25;2.00;;;;;-146.67;100.00;57155.34;4982998;28;61886;-77
2022/08/09 09:36:11;;;;;;;;;6.25;4.50;;;;;-146.67;100.00;57155.34;4983591;28;63207;-77
2022/08/09 09:38:47;;;;;;;;;4.00;3.00;;;;;-146.67;100.00;57155.34;4982663;28;61952;-78
2022/08/09 09:41:27;;;;;;;;;4.00;3.67;;;;;-146.67;100.00;57155.34;4999287;28;61882;-75
2022/08/09 09:44:00;;;;;;;;;5.25;4.25;;;;;-146.67;100.00;57155.34;4999106;28;61852;-77
2022/08/09 09:46:35;;;;;;;;;5.33;3.67;;;;;-146.67;100.00;57155.34;4986729;28;63966;-77
2022/08/09 09:49:05;;;;;;;;;4.00;3.75;;;;;-146.67;100.00;57155.34;4966492;28;62002;-76
2022/08/09 09:51:32;;;;;;;;;4.50;4.50;;;;;-146.67;100.00;57155.34;4982842;28;61795;-76
2022/08/09 09:54:14;;;;;;;;;4.33;3.00;;;;;-146.67;100.00;57155.34;4968535;28;62337;-77
2022/08/09 09:56:42;;;;;;;;;3.00;3.00;;;;;-146.67;100.00;57155.34;4972265;28;63108;-76
2022/08/09 09:59:12;;;;;;;;;5.00;4.00;;;;;-146.67;100.00;57155.34;4981452;28;62076;-76
2022/08/09 10:01:39;;;;;;;;;6.75;3.50;;;;;-146.67;100.00;57155.34;4983990;28;61916;-77
2022/08/09 10:04:13;;;;;;;;;7.75;5.50;;;;;-146.67;100.00;57155.34;4974403;28;61928;-76
2022/08/09 10:06:42;;;;;;;;;5.00;4.00;;;;;-146.67;100.00;57155.34;4989471;28;64085;-76
2022/08/09 10:09:08;;;;;;;;;8.67;3.00;;;;;-146.67;100.00;57155.34;4991856;28;61887;-76
2022/08/09 10:11:35;;;;;;;;;4.75;4.00;;;;;-146.67;100.00;57155.34;4979010;28;61914;-77
2022/08/09 10:14:00;;;;;;;;;4.00;4.00;;;;;-146.67;100.00;57155.34;4967348;28;62012;-77
2022/08/09 10:16:27;;;;;;;;;3.67;3.67;;;;;-146.67;100.00;57155.34;4977680;28;64547;-77
2022/08/09 10:18:54;;;;;;;;;6.00;4.67;;;;;-146.67;100.00;57155.34;4973271;28;62092;-76
2022/08/09 10:21:22;;;;;;;;;4.67;4.67;;;;;-146.67;100.00;57155.34;4998656;28;61920;-76
2022/08/09 10:23:48;;;;;;;;;6.67;5.67;;;;;-146.67;100.00;57155.34;4982998;28;61820;-76
2022/08/09 10:26:14;;;;;;;;;5.00;3.67;;;;;-146.67;100.00;57155.34;4997969;28;63660;-77
2022/08/09 10:28:42;;;;;;;;;5.33;4.33;;;;;-146.67;100.00;57155.34;4984972;28;61924;-77
2022/08/09 10:31:09;;;;;;;;;6.00;6.00;;;;;-146.67;100.00;57155.34;5001603;28;61785;-78
2022/08/09 10:33:35;;;;;;;;;4.33;4.33;;;;;-146.67;100.00;57155.34;4996166;28;62060;-77
2022/08/09 10:36:02;;;;;;;;;4.00;4.00;;;;;-146.67;100.00;57155.34;4984152;28;61874;-77
2022/08/09 10:38:28;;;;;;;;;3.33;3.33;;;;;-146.67;100.00;57155.34;4999853;28;61914;-76
2022/08/09 10:40:53;;;;;;;;;6.67;5.33;;;;;-146.67;100.00;57155.34;4985197;28;61727;-76
2022/08/09 10:43:19;;;;;;;;;5.00;5.00;;;;;-146.67;100.00;57155.34;5002865;28;61707;-76
2022/08/09 10:45:45;;;;;;;;;6.67;3.67;;;;;-146.67;100.00;57155.34;5001035;28;63641;-76
2022/08/09 10:48:19;;;;;;;;;4.33;4.33;;;;;-146.67;100.00;57155.34;5001319;28;61737;-76
2022/08/09 10:51:13;;;;;;;;;4.00;3.00;;;;;-146.67;100.00;57155.34;5001234;28;62014;-76
2022/08/09 10:54:01;;;;;;;;;5.00;5.00;;;;;-146.67;100.00;57155.34;5003034;28;62129;-76
2022/08/09 10:56:32;;;;;;;;;5.00;5.00;;;;;-146.67;100.00;57155.34;5001188;28;63115;-76
2022/08/09 10:59:02;;;;;;;;;7.00;5.00;;;;;-146.67;100.00;57155.34;4985028;28;61771;-76
2022/08/09 11:01:44;;;;;;;;;6.00;5.00;;;;;-146.67;100.00;57155.34;4997353;28;62052;-77
2022/08/09 11:04:38;;;;;;;;;5.00;5.00;;;;;-146.67;100.00;57155.34;4989192;28;62083;-77
2022/08/09 11:07:43;;;;;;;;;2.33;2.33;;;;;-146.67;100.00;57155.34;4971095;28;63454;-76
2022/08/09 11:10:16;;;;;;;;;6.00;5.00;;;;;-146.67;100.00;57155.34;4995869;28;61848;-76
2022/08/09 11:13:49;;;;;;;;;;;;;;;;;;;;;
2022/08/09 11:16:41;;;;;;;;;4.00;4.00;;;;;-146.67;100.00;57155.34;4940736;28;67486;-77
2022/08/09 11:19:57;;;;;;;;;4.67;4.67;;;;;-146.67;100.00;57155.34;4940257;28;64158;-76
2022/08/09 11:23:03;;;;;;;;;3.67;3.67;;;;;-146.67;100.00;57155.34;4941382;28;61881;-78
2022/08/09 11:25:52;;;;;;;;;4.67;4.67;;;;;-146.67;100.00;57155.34;4940824;28;62069;-76
2022/08/09 11:28:38;;;;;;;;;6.00;4.00;;;;;-146.67;100.00;57155.34;4940464;28;61727;-78
2022/08/09 11:31:57;;;;;;;;;4.33;4.33;;;;;-146.67;100.00;57155.34;4939126;28;62786;-77
2022/08/09 11:34:54;;;;;;;;;6.00;3.00;;;;;-146.67;100.00;57155.34;4883658;29;62104;-75